»·PEaware :: UAL456 KSEA-KGEG

UAL456 :: KSEA-KGEG

FLIGHT INFORMATION

Flight Status: Arrived
Operator:
United Airlines
More flights by this operator :: More flights under this callsign
Pilot: Sanjiv S. (4490)
Aircraft: AIRBUS A320
(A320)
More flights by this aircraft type
Origin: KSEA Seattle-Tacoma Intl
United States
Destination: KGEG Spokane Intl
United States
More flights between these airports :: More routes between these airports
Route: +SEATTLE6 ZADON ZELAK ZIRAN ZOOMR ZOOMR1
File this flight plan on PilotEdge
Remarks:
Altitude:
(Current/Filed)
29,000ft
Speed:
(Current/Filed)
420kts
Departed: 04-Dec-17 09:43 AM
Arrived: 04-Dec-17 10:31 AM
Distance/Time
Traveled:
193nm/0:48
Distance/Time
To Go:
Arrived

Flight Plot

Page will automatically refresh every two minutes.

Flight plan parsing failed; only flown route is shown


Map Options




Map Legend


Flown Route
Filed Route
Departure Airport
Arrival Airport
Navaid (VOR, NDB)
Fix

Horizontal Profiles

Position Reports

Time Latitude Longitude Heading Altitude Ground
Speed
04-Dec-17 09:15 47.441200 -122.300811 45 382ft 0kts
04-Dec-17 09:16 47.441200 -122.300811 45 382ft 0kts
04-Dec-17 09:17 47.441200 -122.300811 45 382ft 0kts
04-Dec-17 09:18 47.441200 -122.300811 45 382ft 0kts
04-Dec-17 09:19 47.441200 -122.300811 45 382ft 0kts
04-Dec-17 09:20 47.441200 -122.300811 45 382ft 0kts
04-Dec-17 09:21 47.441200 -122.300811 45 382ft 0kts
04-Dec-17 09:22 47.441200 -122.300811 45 382ft 0kts
04-Dec-17 09:23 47.441200 -122.300811 45 382ft 0kts
04-Dec-17 09:24 47.441200 -122.300811 45 382ft 0kts
04-Dec-17 09:25 47.441200 -122.300811 45 382ft 0kts
04-Dec-17 09:26 47.441200 -122.300811 45 382ft 0kts
04-Dec-17 09:27 47.441200 -122.300811 45 382ft 0kts
04-Dec-17 09:28 47.441200 -122.300811 45 382ft 0kts
04-Dec-17 09:29 47.441200 -122.300811 45 382ft 0kts
04-Dec-17 09:30 47.441200 -122.300811 45 382ft 0kts
04-Dec-17 09:31 47.441200 -122.300811 45 382ft 0kts
04-Dec-17 09:32 47.441200 -122.300811 45 382ft 0kts
04-Dec-17 09:33 47.441200 -122.300811 45 382ft 0kts
04-Dec-17 09:34 47.441200 -122.300811 45 382ft 0kts
04-Dec-17 09:35 47.441200 -122.300811 45 382ft 0kts
04-Dec-17 09:36 47.440990 -122.301034 24 382ft 2kts
04-Dec-17 09:37 47.440474 -122.301077 341 381ft 2kts
04-Dec-17 09:38 47.440132 -122.300723 312 380ft 0kts
04-Dec-17 09:39 47.440132 -122.300723 312 380ft 0kts
04-Dec-17 09:40 47.440167 -122.300780 312 380ft 1kts
04-Dec-17 09:41 47.439885 -122.304747 271 377ft 10kts
04-Dec-17 09:42 47.442588 -122.306370 0 385ft 12kts
04-Dec-17 09:43 47.447314 -122.306294 1 400ft 23kts
04-Dec-17 09:44 47.453061 -122.306243 1 425ft 18kts
04-Dec-17 09:45 47.457961 -122.306183 1 440ft 18kts
04-Dec-17 09:46 47.463508 -122.306251 338 420ft 11kts
04-Dec-17 09:47 47.463468 -122.307717 185 410ft 19kts
04-Dec-17 09:48 47.448428 -122.307824 177 565ft 165kts
04-Dec-17 09:49 47.401857 -122.309695 182 3435ft 203kts
04-Dec-17 09:50 47.336352 -122.315132 182 5789ft 269kts
04-Dec-17 09:51 47.266027 -122.321303 181 8956ft 277kts
04-Dec-17 09:52 47.219626 -122.247689 85 10921ft 318kts
04-Dec-17 09:53 47.261146 -122.140802 49 12174ft 358kts
04-Dec-17 09:54 47.316811 -122.029119 48 14549ft 365kts
04-Dec-17 09:55 47.374360 -121.914245 47 16756ft 371kts
04-Dec-17 09:56 47.432636 -121.797577 47 18650ft 380kts
04-Dec-17 09:57 47.491651 -121.678943 46 20367ft 388kts
04-Dec-17 09:58 47.548581 -121.558367 58 21887ft 404kts
04-Dec-17 09:59 47.557561 -121.395530 83 23270ft 436kts
04-Dec-17 10:00 47.554848 -121.220401 84 24506ft 445kts
04-Dec-17 10:01 47.551799 -121.042307 83 25837ft 449kts
04-Dec-17 10:02 47.548500 -120.865692 82 27043ft 452kts
04-Dec-17 10:03 47.544825 -120.684814 82 28041ft 459kts
04-Dec-17 10:04 47.540779 -120.500787 81 29158ft 459kts
04-Dec-17 10:05 47.534454 -120.319621 84 29563ft 461kts
04-Dec-17 10:06 47.525957 -120.135574 84 29550ft 459kts
04-Dec-17 10:07 47.517423 -119.957088 84 28330ft 430kts
04-Dec-17 10:08 47.508980 -119.785428 84 26972ft 425kts
04-Dec-17 10:09 47.500406 -119.616641 86 25925ft 417kts
04-Dec-17 10:10 47.491738 -119.450680 86 24779ft 410kts
04-Dec-17 10:11 47.483176 -119.291155 88 23618ft 403kts
04-Dec-17 10:12 47.474304 -119.130155 88 22415ft 396kts
04-Dec-17 10:13 47.465376 -118.972153 88 21202ft 389kts
04-Dec-17 10:14 47.456503 -118.819011 87 19638ft 381kts
04-Dec-17 10:15 47.447585 -118.668421 87 17698ft 373kts
04-Dec-17 10:16 47.438831 -118.523755 88 15838ft 365kts
04-Dec-17 10:17 47.429797 -118.377616 89 13864ft 359kts
04-Dec-17 10:18 47.438514 -118.246858 67 13038ft 335kts
04-Dec-17 10:19 47.465207 -118.117605 67 13041ft 334kts
04-Dec-17 10:20 47.473908 -117.982323 86 12431ft 340kts
04-Dec-17 10:21 47.472473 -117.845745 85 10282ft 337kts
04-Dec-17 10:22 47.474352 -117.717054 85 8499ft 301kts
04-Dec-17 10:23 47.478619 -117.595840 85 7042ft 298kts
04-Dec-17 10:24 47.484559 -117.482176 84 7068ft 262kts
04-Dec-17 10:25 47.498054 -117.391915 46 7064ft 221kts
04-Dec-17 10:26 47.537699 -117.329040 45 7065ft 212kts
04-Dec-17 10:27 47.576439 -117.266320 45 7064ft 212kts
04-Dec-17 10:28 47.615616 -117.202900 45 7064ft 212kts
04-Dec-17 10:29 47.655261 -117.141590 26 7066ft 211kts
04-Dec-17 10:30 47.697777 -117.185198 295 7063ft 228kts
04-Dec-17 10:31 47.720322 -117.272426 295 6536ft 237kts
04-Dec-17 10:32 47.739029 -117.361235 258 5074ft 233kts
04-Dec-17 10:33 47.695183 -117.423334 222 3903ft 212kts
04-Dec-17 10:34 47.659145 -117.476148 221 2985ft 168kts
04-Dec-17 10:35 47.630832 -117.518894 223 2358ft 137kts
04-Dec-17 10:36 47.620082 -117.537068 255 2368ft 9kts
04-Dec-17 10:37 47.622263 -117.537544 316 2365ft 17kts
04-Dec-17 10:38 47.622726 -117.539695 316 2368ft 5kts
04-Dec-17 10:39 47.623357 -117.539812 0 2368ft 0kts

Navigation Log

Ident Type
Flight plan parsing failed, navigation log unavailable